createdAt,value
2023-02-12T00:04:48.571Z,1.04
2023-02-12T00:13:13.212Z,0.88
2023-02-12T00:21:36.374Z,0.74
2023-02-12T00:30:00.141Z,0.60
2023-02-12T00:38:23.522Z,0.54
2023-02-12T00:46:46.480Z,0.46
2023-02-12T00:55:09.523Z,0.42
2023-02-12T01:03:32.708Z,0.34
2023-02-12T01:11:55.918Z,0.28
2023-02-12T01:20:21.737Z,0.22
2023-02-12T01:28:49.215Z,0.20
2023-02-12T01:37:12.611Z,0.15
2023-02-12T01:45:47.376Z,0.13
2023-02-12T01:54:13.632Z,0.10
2023-02-12T02:02:42.448Z,0.02
2023-02-12T02:11:25.481Z,0.02
2023-02-12T02:20:01.663Z,0.04
2023-02-12T02:28:42.274Z,-0.03
2023-02-12T02:37:47.574Z,-0.10
2023-02-12T02:46:16.099Z,-0.17
2023-02-12T02:54:50.469Z,-0.21
2023-02-12T03:03:21.293Z,-0.23
2023-02-12T03:11:44.986Z,-0.27
2023-02-12T03:20:10.602Z,-0.26
2023-02-12T03:28:37.243Z,-0.26
2023-02-12T03:37:17.153Z,-0.29
2023-02-12T03:46:01.881Z,-0.27
2023-02-12T03:54:25.217Z,-0.26
2023-02-12T04:02:49.032Z,-0.25
2023-02-12T04:11:29.822Z,-0.24
2023-02-12T04:19:58.864Z,-0.19
2023-02-12T04:28:46.719Z,-0.22
2023-02-12T04:37:45.010Z,-0.27
2023-02-12T04:46:09.200Z,-0.35
2023-02-12T04:54:32.421Z,-0.42
2023-02-12T05:02:55.383Z,-0.46
2023-02-12T05:11:18.332Z,-0.49
2023-02-12T05:19:41.248Z,-0.49
2023-02-12T05:28:04.377Z,-0.54
2023-02-12T05:36:28.074Z,-0.57
2023-02-12T05:44:51.563Z,-0.61
2023-02-12T05:53:16.288Z,-0.59
2023-02-12T06:01:42.963Z,-0.56
2023-02-12T06:10:06.587Z,-0.56
2023-02-12T06:18:29.988Z,-0.53
2023-02-12T06:26:52.917Z,-0.47
2023-02-12T06:35:16.177Z,-0.45
2023-02-12T06:43:41.115Z,-0.48
2023-02-12T06:52:07.245Z,-0.52
2023-02-12T07:00:35.947Z,-0.49
2023-02-12T07:08:59.116Z,-0.42
2023-02-12T07:17:22.020Z,-0.30
2023-02-12T07:25:55.191Z,-0.18
2023-02-12T07:34:18.397Z,0.01
2023-02-12T07:42:41.376Z,0.13
2023-02-12T07:51:10.432Z,0.19
2023-02-12T07:59:33.473Z,0.26
2023-02-12T08:07:56.448Z,0.34
2023-02-12T08:16:22.349Z,1.59
2023-02-12T08:24:45.309Z,3.13
2023-02-12T08:33:08.231Z,4.37
2023-02-12T08:41:32.160Z,4.27
2023-02-12T08:49:55.133Z,3.70
2023-02-12T08:58:18.142Z,3.46
2023-02-12T09:06:41.163Z,3.20
2023-02-12T09:15:04.408Z,2.98
2023-02-12T09:23:27.845Z,2.74
2023-02-12T09:31:50.963Z,2.52
2023-02-12T09:40:27.645Z,2.31
2023-02-12T09:49:28.658Z,2.18
2023-02-12T09:57:54.456Z,2.06
2023-02-12T10:06:33.784Z,2.03
2023-02-12T10:15:10.619Z,2.05
2023-02-12T10:23:51.374Z,2.00
2023-02-12T10:32:19.825Z,1.88
2023-02-12T10:40:45.100Z,1.83
2023-02-12T10:49:11.931Z,1.78
2023-02-12T10:57:39.480Z,1.73
2023-02-12T11:06:18.021Z,1.90
2023-02-12T11:14:49.369Z,2.07
2023-02-12T11:23:27.938Z,2.09
2023-02-12T11:32:05.538Z,2.03
2023-02-12T11:40:35.714Z,2.02
2023-02-12T11:49:00.865Z,2.11
2023-02-12T11:57:47.363Z,2.18
2023-02-12T12:06:31.919Z,2.15
2023-02-12T12:15:34.765Z,2.09
2023-02-12T12:24:10.096Z,2.02
2023-02-12T12:32:36.497Z,1.94
2023-02-12T12:41:31.518Z,1.89
2023-02-12T12:50:00.629Z,1.82
2023-02-12T12:58:29.392Z,1.75
2023-02-12T13:07:01.073Z,1.76
2023-02-12T13:15:43.476Z,1.81
2023-02-12T13:24:33.043Z,1.81
2023-02-12T13:32:57.053Z,1.86
2023-02-12T13:41:21.882Z,1.96
2023-02-12T13:49:59.667Z,2.04
2023-02-12T13:58:37.851Z,2.05
2023-02-12T14:07:07.024Z,1.96
2023-02-12T14:15:38.701Z,1.81
2023-02-12T14:24:36.909Z,1.69
2023-02-12T14:33:21.885Z,1.57
2023-02-12T14:41:46.172Z,1.39
2023-02-12T14:50:17.511Z,1.22
2023-02-12T14:58:40.998Z,1.18
2023-02-12T15:07:12.175Z,1.11
2023-02-12T15:15:43.080Z,0.95
2023-02-12T15:24:11.808Z,0.72
2023-02-12T15:32:38.251Z,0.49
2023-02-12T15:41:02.778Z,0.23
2023-02-12T15:49:35.657Z,0.00
2023-02-12T15:58:02.112Z,-0.14
2023-02-12T16:06:27.853Z,-0.25
2023-02-12T16:14:57.602Z,-0.39
2023-02-12T16:23:23.767Z,-0.57
2023-02-12T16:31:59.812Z,-0.74
2023-02-12T16:40:26.804Z,-0.82
2023-02-12T16:48:53.614Z,-0.85
2023-02-12T16:57:16.579Z,-1.01
2023-02-12T17:05:39.621Z,-1.19
2023-02-12T17:14:03.538Z,-1.33
2023-02-12T17:22:28.526Z,-1.36
2023-02-12T17:30:53.093Z,-1.35
2023-02-12T17:39:22.262Z,-1.40
2023-02-12T17:47:45.666Z,-1.50
2023-02-12T17:56:15.825Z,-1.59
2023-02-12T18:04:39.855Z,-1.68
2023-02-12T18:13:03.820Z,-1.70
2023-02-12T18:21:28.823Z,-1.62
2023-02-12T18:29:51.867Z,-1.62
2023-02-12T18:38:14.837Z,-1.69
2023-02-12T18:46:37.860Z,-1.67
2023-02-12T18:55:01.354Z,-1.58
2023-02-12T19:03:25.902Z,-1.56
2023-02-12T19:11:51.074Z,-1.61
2023-02-12T19:20:17.002Z,-1.66
2023-02-12T19:28:40.014Z,-1.65
2023-02-12T19:37:03.055Z,-1.56
2023-02-12T19:45:25.986Z,-1.55
2023-02-12T19:53:49.159Z,-1.56
2023-02-12T20:02:13.079Z,-1.44
2023-02-12T20:10:40.079Z,-1.21
2023-02-12T20:19:07.933Z,-1.03
2023-02-12T20:27:33.559Z,-0.88
2023-02-12T20:35:58.001Z,-0.71
2023-02-12T20:44:22.476Z,-0.50
2023-02-12T20:52:45.410Z,-0.35
2023-02-12T21:01:12.387Z,-0.23
2023-02-12T21:09:35.484Z,-0.08
2023-02-12T21:17:58.585Z,0.12
2023-02-12T21:26:24.508Z,0.21
2023-02-12T21:34:48.843Z,0.21
2023-02-12T21:43:12.024Z,0.25
2023-02-12T21:51:41.551Z,0.29
2023-02-12T22:00:06.719Z,0.28
2023-02-12T22:08:35.710Z,0.26
2023-02-12T22:16:58.884Z,0.29
2023-02-12T22:25:23.382Z,0.40
2023-02-12T22:33:51.119Z,0.44
2023-02-12T22:42:14.498Z,0.47
2023-02-12T22:50:39.782Z,0.53
2023-02-12T22:59:02.780Z,0.66
2023-02-12T23:07:25.911Z,0.74
2023-02-12T23:15:48.873Z,0.78
2023-02-12T23:24:15.247Z,0.90
2023-02-12T23:32:38.427Z,1.05
2023-02-12T23:41:01.357Z,1.17
2023-02-12T23:49:25.083Z,1.19
2023-02-12T23:57:50.348Z,1.22
